sensor_id;sensor_type;location;lat;lon;timestamp;temperature;humidity
47779;DHT22;33538;48.432;11.350;2023-05-10T00:00:13;16.50;93.40
47779;DHT22;33538;48.432;11.350;2023-05-10T00:02:41;16.50;94.00
47779;DHT22;33538;48.432;11.350;2023-05-10T00:05:08;16.50;94.00
47779;DHT22;33538;48.432;11.350;2023-05-10T00:07:35;16.50;94.00
47779;DHT22;33538;48.432;11.350;2023-05-10T00:10:04;16.50;94.40
47779;DHT22;33538;48.432;11.350;2023-05-10T00:12:30;16.50;94.40
47779;DHT22;33538;48.432;11.350;2023-05-10T00:14:57;16.50;94.50
47779;DHT22;33538;48.432;11.350;2023-05-10T00:17:24;16.40;94.40
47779;DHT22;33538;48.432;11.350;2023-05-10T00:19:51;16.50;94.70
47779;DHT22;33538;48.432;11.350;2023-05-10T00:22:17;16.50;94.70
47779;DHT22;33538;48.432;11.350;2023-05-10T00:24:44;16.50;95.00
47779;DHT22;33538;48.432;11.350;2023-05-10T00:27:12;16.40;95.30
47779;DHT22;33538;48.432;11.350;2023-05-10T00:29:39;16.40;95.10
47779;DHT22;33538;48.432;11.350;2023-05-10T00:32:06;16.40;95.20
47779;DHT22;33538;48.432;11.350;2023-05-10T00:34:33;16.40;95.60
47779;DHT22;33538;48.432;11.350;2023-05-10T00:36:59;16.40;95.80
47779;DHT22;33538;48.432;11.350;2023-05-10T00:39:26;16.50;95.50
47779;DHT22;33538;48.432;11.350;2023-05-10T00:41:53;16.40;95.50
47779;DHT22;33538;48.432;11.350;2023-05-10T00:44:21;16.40;96.20
47779;DHT22;33538;48.432;11.350;2023-05-10T00:46:48;16.40;96.10
47779;DHT22;33538;48.432;11.350;2023-05-10T00:49:16;16.40;96.00
47779;DHT22;33538;48.432;11.350;2023-05-10T00:51:43;16.40;96.10
47779;DHT22;33538;48.432;11.350;2023-05-10T00:54:11;16.40;96.10
47779;DHT22;33538;48.432;11.350;2023-05-10T00:56:38;16.40;96.70
47779;DHT22;33538;48.432;11.350;2023-05-10T00:59:06;16.40;96.20
47779;DHT22;33538;48.432;11.350;2023-05-10T01:01:35;16.40;96.20
47779;DHT22;33538;48.432;11.350;2023-05-10T01:04:02;16.40;96.10
47779;DHT22;33538;48.432;11.350;2023-05-10T01:06:29;16.40;96.30
47779;DHT22;33538;48.432;11.350;2023-05-10T01:08:56;16.40;96.10
47779;DHT22;33538;48.432;11.350;2023-05-10T01:11:22;16.30;96.50
47779;DHT22;33538;48.432;11.350;2023-05-10T01:13:56;16.30;96.50
47779;DHT22;33538;48.432;11.350;2023-05-10T01:16:23;16.30;96.80
47779;DHT22;33538;48.432;11.350;2023-05-10T01:22:40;16.30;96.50
47779;DHT22;33538;48.432;11.350;2023-05-10T01:28:32;16.30;96.90
47779;DHT22;33538;48.432;11.350;2023-05-10T01:31:18;16.30;97.00
47779;DHT22;33538;48.432;11.350;2023-05-10T01:33:55;16.30;97.00
47779;DHT22;33538;48.432;11.350;2023-05-10T01:36:30;16.30;97.10
47779;DHT22;33538;48.432;11.350;2023-05-10T01:39:02;16.30;96.90
47779;DHT22;33538;48.432;11.350;2023-05-10T01:41:41;16.30;97.20
47779;DHT22;33538;48.432;11.350;2023-05-10T01:44:15;16.20;97.50
47779;DHT22;33538;48.432;11.350;2023-05-10T01:46:45;16.20;97.50
47779;DHT22;33538;48.432;11.350;2023-05-10T01:49:23;16.20;97.70
47779;DHT22;33538;48.432;11.350;2023-05-10T01:51:53;16.20;97.80
47779;DHT22;33538;48.432;11.350;2023-05-10T01:54:21;16.20;97.30
47779;DHT22;33538;48.432;11.350;2023-05-10T01:56:54;16.20;97.50
47779;DHT22;33538;48.432;11.350;2023-05-10T01:59:22;16.20;97.30
47779;DHT22;33538;48.432;11.350;2023-05-10T02:01:56;16.20;97.60
47779;DHT22;33538;48.432;11.350;2023-05-10T02:04:25;16.20;97.70
47779;DHT22;33538;48.432;11.350;2023-05-10T02:06:54;16.20;97.20
47779;DHT22;33538;48.432;11.350;2023-05-10T02:09:22;16.10;97.10
47779;DHT22;33538;48.432;11.350;2023-05-10T02:11:50;16.10;97.70
47779;DHT22;33538;48.432;11.350;2023-05-10T02:14:18;16.10;97.30
47779;DHT22;33538;48.432;11.350;2023-05-10T02:16:46;16.10;96.80
47779;DHT22;33538;48.432;11.350;2023-05-10T02:19:14;16.10;97.30
47779;DHT22;33538;48.432;11.350;2023-05-10T02:21:43;16.10;97.50
47779;DHT22;33538;48.432;11.350;2023-05-10T02:24:11;16.10;97.60
47779;DHT22;33538;48.432;11.350;2023-05-10T02:26:41;16.10;97.80
47779;DHT22;33538;48.432;11.350;2023-05-10T02:29:09;16.10;97.60
47779;DHT22;33538;48.432;11.350;2023-05-10T02:31:36;16.10;98.40
47779;DHT22;33538;48.432;11.350;2023-05-10T02:34:04;16.10;98.30
47779;DHT22;33538;48.432;11.350;2023-05-10T02:36:32;16.10;98.30
47779;DHT22;33538;48.432;11.350;2023-05-10T02:39:01;16.00;97.90
47779;DHT22;33538;48.432;11.350;2023-05-10T02:41:31;16.00;98.10
47779;DHT22;33538;48.432;11.350;2023-05-10T02:44:01;16.00;98.00
47779;DHT22;33538;48.432;11.350;2023-05-10T02:46:29;16.00;98.50
47779;DHT22;33538;48.432;11.350;2023-05-10T02:48:56;16.00;98.50
47779;DHT22;33538;48.432;11.350;2023-05-10T02:51:25;16.00;98.60
47779;DHT22;33538;48.432;11.350;2023-05-10T02:53:55;16.00;98.50
47779;DHT22;33538;48.432;11.350;2023-05-10T02:56:28;16.00;98.20
47779;DHT22;33538;48.432;11.350;2023-05-10T02:58:55;16.00;98.50
47779;DHT22;33538;48.432;11.350;2023-05-10T03:01:22;16.00;98.50
47779;DHT22;33538;48.432;11.350;2023-05-10T03:03:49;16.00;98.10
47779;DHT22;33538;48.432;11.350;2023-05-10T03:06:16;16.00;97.90
47779;DHT22;33538;48.432;11.350;2023-05-10T03:08:43;16.00;98.00
47779;DHT22;33538;48.432;11.350;2023-05-10T03:11:27;16.00;98.00
47779;DHT22;33538;48.432;11.350;2023-05-10T03:14:07;16.00;97.90
47779;DHT22;33538;48.432;11.350;2023-05-10T03:16:41;16.00;97.50
47779;DHT22;33538;48.432;11.350;2023-05-10T03:19:14;16.00;97.60
47779;DHT22;33538;48.432;11.350;2023-05-10T03:21:49;16.10;97.40
47779;DHT22;33538;48.432;11.350;2023-05-10T03:24:16;16.00;97.30
47779;DHT22;33538;48.432;11.350;2023-05-10T03:26:47;16.00;97.50
47779;DHT22;33538;48.432;11.350;2023-05-10T03:29:15;16.00;97.50
47779;DHT22;33538;48.432;11.350;2023-05-10T03:31:43;16.00;97.50
47779;DHT22;33538;48.432;11.350;2023-05-10T03:34:10;16.00;97.60
47779;DHT22;33538;48.432;11.350;2023-05-10T03:36:37;16.00;97.60
47779;DHT22;33538;48.432;11.350;2023-05-10T03:39:04;16.00;97.60
47779;DHT22;33538;48.432;11.350;2023-05-10T03:41:31;16.00;97.70
47779;DHT22;33538;48.432;11.350;2023-05-10T03:43:59;16.00;97.90
47779;DHT22;33538;48.432;11.350;2023-05-10T03:46:25;15.90;97.90
47779;DHT22;33538;48.432;11.350;2023-05-10T03:48:52;15.90;98.00
47779;DHT22;33538;48.432;11.350;2023-05-10T03:51:19;15.90;98.00
47779;DHT22;33538;48.432;11.350;2023-05-10T03:53:46;15.90;98.10
47779;DHT22;33538;48.432;11.350;2023-05-10T03:56:13;15.90;98.10
47779;DHT22;33538;48.432;11.350;2023-05-10T03:58:39;15.90;97.90
47779;DHT22;33538;48.432;11.350;2023-05-10T04:01:07;15.90;97.90
47779;DHT22;33538;48.432;11.350;2023-05-10T04:03:34;15.90;97.80
47779;DHT22;33538;48.432;11.350;2023-05-10T04:06:01;15.90;98.00
47779;DHT22;33538;48.432;11.350;2023-05-10T04:08:28;15.90;98.00
47779;DHT22;33538;48.432;11.350;2023-05-10T04:11:05;15.90;97.90
47779;DHT22;33538;48.432;11.350;2023-05-10T04:13:31;15.90;98.00
47779;DHT22;33538;48.432;11.350;2023-05-10T04:15:58;15.90;97.90
47779;DHT22;33538;48.432;11.350;2023-05-10T04:18:26;15.90;98.00
47779;DHT22;33538;48.432;11.350;2023-05-10T04:20:53;15.90;98.00
47779;DHT22;33538;48.432;11.350;2023-05-10T04:23:20;15.90;98.00
47779;DHT22;33538;48.432;11.350;2023-05-10T04:25:47;15.90;97.90
47779;DHT22;33538;48.432;11.350;2023-05-10T04:28:13;15.90;97.50
47779;DHT22;33538;48.432;11.350;2023-05-10T04:30:40;16.00;97.10
47779;DHT22;33538;48.432;11.350;2023-05-10T04:33:07;15.90;97.10
47779;DHT22;33538;48.432;11.350;2023-05-10T04:35:36;15.90;97.30
47779;DHT22;33538;48.432;11.350;2023-05-10T04:38:02;15.80;97.60
47779;DHT22;33538;48.432;11.350;2023-05-10T04:40:29;15.80;98.00
47779;DHT22;33538;48.432;11.350;2023-05-10T04:42:56;15.80;97.90
47779;DHT22;33538;48.432;11.350;2023-05-10T04:45:23;15.70;98.00
47779;DHT22;33538;48.432;11.350;2023-05-10T04:47:49;15.70;97.90
47779;DHT22;33538;48.432;11.350;2023-05-10T04:50:16;15.70;97.70
47779;DHT22;33538;48.432;11.350;2023-05-10T04:52:45;15.70;97.70
47779;DHT22;33538;48.432;11.350;2023-05-10T04:55:11;15.70;97.70
47779;DHT22;33538;48.432;11.350;2023-05-10T04:57:38;15.70;97.70
47779;DHT22;33538;48.432;11.350;2023-05-10T05:00:06;15.70;97.80
47779;DHT22;33538;48.432;11.350;2023-05-10T05:02:33;15.70;98.20
47779;DHT22;33538;48.432;11.350;2023-05-10T05:05:00;15.70;97.80
47779;DHT22;33538;48.432;11.350;2023-05-10T05:07:27;15.70;97.50
47779;DHT22;33538;48.432;11.350;2023-05-10T05:09:55;15.70;97.80
47779;DHT22;33538;48.432;11.350;2023-05-10T05:12:21;15.60;98.00
47779;DHT22;33538;48.432;11.350;2023-05-10T05:14:48;15.60;97.70
47779;DHT22;33538;48.432;11.350;2023-05-10T05:17:15;15.60;97.70
47779;DHT22;33538;48.432;11.350;2023-05-10T05:19:42;15.60;97.50
47779;DHT22;33538;48.432;11.350;2023-05-10T05:22:08;15.60;97.40
47779;DHT22;33538;48.432;11.350;2023-05-10T05:24:35;15.60;97.50
47779;DHT22;33538;48.432;11.350;2023-05-10T05:27:04;15.60;97.70
47779;DHT22;33538;48.432;11.350;2023-05-10T05:29:30;15.60;97.60
47779;DHT22;33538;48.432;11.350;2023-05-10T05:31:57;15.70;97.60
47779;DHT22;33538;48.432;11.350;2023-05-10T05:34:24;15.60;97.60
47779;DHT22;33538;48.432;11.350;2023-05-10T05:36:51;15.60;97.50
47779;DHT22;33538;48.432;11.350;2023-05-10T05:39:17;15.60;97.80
47779;DHT22;33538;48.432;11.350;2023-05-10T05:41:44;15.60;97.70
47779;DHT22;33538;48.432;11.350;2023-05-10T05:44:12;15.60;97.70
47779;DHT22;33538;48.432;11.350;2023-05-10T05:46:39;15.60;97.50
47779;DHT22;33538;48.432;11.350;2023-05-10T05:49:06;15.60;97.40
47779;DHT22;33538;48.432;11.350;2023-05-10T05:51:33;15.70;97.00
47779;DHT22;33538;48.432;11.350;2023-05-10T05:53:59;15.60;97.10
47779;DHT22;33538;48.432;11.350;2023-05-10T05:56:26;15.60;97.10
47779;DHT22;33538;48.432;11.350;2023-05-10T05:58:53;15.60;96.90
47779;DHT22;33538;48.432;11.350;2023-05-10T06:01:21;15.70;97.20
47779;DHT22;33538;48.432;11.350;2023-05-10T06:03:48;15.70;97.20
47779;DHT22;33538;48.432;11.350;2023-05-10T06:06:18;15.60;97.10
47779;DHT22;33538;48.432;11.350;2023-05-10T06:08:44;15.60;96.90
47779;DHT22;33538;48.432;11.350;2023-05-10T06:11:11;15.60;97.10
47779;DHT22;33538;48.432;11.350;2023-05-10T06:13:38;15.70;97.00
47779;DHT22;33538;48.432;11.350;2023-05-10T06:16:05;15.70;97.80
47779;DHT22;33538;48.432;11.350;2023-05-10T06:18:34;15.70;97.50
47779;DHT22;33538;48.432;11.350;2023-05-10T06:21:00;15.70;97.20
47779;DHT22;33538;48.432;11.350;2023-05-10T06:23:27;15.70;96.90
47779;DHT22;33538;48.432;11.350;2023-05-10T06:25:54;15.70;97.10
47779;DHT22;33538;48.432;11.350;2023-05-10T06:28:21;15.70;97.40
47779;DHT22;33538;48.432;11.350;2023-05-10T06:30:47;15.70;97.60
47779;DHT22;33538;48.432;11.350;2023-05-10T06:33:14;15.70;97.30
47779;DHT22;33538;48.432;11.350;2023-05-10T06:35:42;15.70;97.40
47779;DHT22;33538;48.432;11.350;2023-05-10T06:38:09;15.70;97.40
47779;DHT22;33538;48.432;11.350;2023-05-10T06:40:36;15.70;97.40
47779;DHT22;33538;48.432;11.350;2023-05-10T06:43:03;15.70;97.30
47779;DHT22;33538;48.432;11.350;2023-05-10T06:45:29;15.70;97.40
47779;DHT22;33538;48.432;11.350;2023-05-10T06:47:56;15.70;97.40
47779;DHT22;33538;48.432;11.350;2023-05-10T06:50:23;15.70;97.80
47779;DHT22;33538;48.432;11.350;2023-05-10T06:52:51;15.70;97.80
47779;DHT22;33538;48.432;11.350;2023-05-10T06:55:19;15.70;98.10
47779;DHT22;33538;48.432;11.350;2023-05-10T06:57:45;15.80;98.00
47779;DHT22;33538;48.432;11.350;2023-05-10T07:00:13;15.80;97.60
47779;DHT22;33538;48.432;11.350;2023-05-10T07:02:40;15.80;97.60
47779;DHT22;33538;48.432;11.350;2023-05-10T07:05:08;15.80;97.60
47779;DHT22;33538;48.432;11.350;2023-05-10T07:07:35;15.80;97.40
47779;DHT22;33538;48.432;11.350;2023-05-10T07:10:03;15.80;97.60
47779;DHT22;33538;48.432;11.350;2023-05-10T07:12:30;15.80;97.80
47779;DHT22;33538;48.432;11.350;2023-05-10T07:14:57;15.80;98.00
47779;DHT22;33538;48.432;11.350;2023-05-10T07:17:24;15.80;98.30
47779;DHT22;33538;48.432;11.350;2023-05-10T07:19:51;15.80;98.60
47779;DHT22;33538;48.432;11.350;2023-05-10T07:22:18;15.90;97.80
47779;DHT22;33538;48.432;11.350;2023-05-10T07:24:44;15.90;97.80
47779;DHT22;33538;48.432;11.350;2023-05-10T07:27:13;15.90;97.70
47779;DHT22;33538;48.432;11.350;2023-05-10T07:29:39;15.90;97.70
47779;DHT22;33538;48.432;11.350;2023-05-10T07:32:06;15.90;97.90
47779;DHT22;33538;48.432;11.350;2023-05-10T07:34:33;15.90;98.00
47779;DHT22;33538;48.432;11.350;2023-05-10T07:37:00;15.90;97.70
47779;DHT22;33538;48.432;11.350;2023-05-10T07:39:27;16.00;97.50
47779;DHT22;33538;48.432;11.350;2023-05-10T07:41:54;16.00;97.40
47779;DHT22;33538;48.432;11.350;2023-05-10T07:44:23;16.00;97.10
47779;DHT22;33538;48.432;11.350;2023-05-10T07:46:50;16.00;97.20
47779;DHT22;33538;48.432;11.350;2023-05-10T07:49:17;16.10;97.40
47779;DHT22;33538;48.432;11.350;2023-05-10T07:51:47;16.00;97.80
47779;DHT22;33538;48.432;11.350;2023-05-10T07:54:14;16.10;97.40
47779;DHT22;33538;48.432;11.350;2023-05-10T07:56:41;16.00;97.20
47779;DHT22;33538;48.432;11.350;2023-05-10T07:59:07;16.00;97.20
47779;DHT22;33538;48.432;11.350;2023-05-10T08:01:39;16.10;97.00
47779;DHT22;33538;48.432;11.350;2023-05-10T08:04:06;16.10;97.00
47779;DHT22;33538;48.432;11.350;2023-05-10T08:06:33;16.10;96.60
47779;DHT22;33538;48.432;11.350;2023-05-10T08:09:00;16.10;96.40
47779;DHT22;33538;48.432;11.350;2023-05-10T08:11:27;16.10;96.30
47779;DHT22;33538;48.432;11.350;2023-05-10T08:13:54;16.20;96.20
47779;DHT22;33538;48.432;11.350;2023-05-10T08:16:21;16.20;95.90
47779;DHT22;33538;48.432;11.350;2023-05-10T08:18:50;16.20;96.00
47779;DHT22;33538;48.432;11.350;2023-05-10T08:21:17;16.20;96.10
47779;DHT22;33538;48.432;11.350;2023-05-10T08:23:43;16.20;96.20
47779;DHT22;33538;48.432;11.350;2023-05-10T08:26:11;16.20;96.30
47779;DHT22;33538;48.432;11.350;2023-05-10T08:28:38;16.10;96.50
47779;DHT22;33538;48.432;11.350;2023-05-10T08:31:05;16.10;96.50
47779;DHT22;33538;48.432;11.350;2023-05-10T08:33:32;16.10;96.80
47779;DHT22;33538;48.432;11.350;2023-05-10T08:36:00;16.10;97.40
47779;DHT22;33538;48.432;11.350;2023-05-10T08:38:27;16.10;97.40
47779;DHT22;33538;48.432;11.350;2023-05-10T08:40:54;16.10;97.60
47779;DHT22;33538;48.432;11.350;2023-05-10T08:43:21;16.10;97.60
47779;DHT22;33538;48.432;11.350;2023-05-10T08:45:53;16.10;97.20
47779;DHT22;33538;48.432;11.350;2023-05-10T08:48:22;16.10;97.20
47779;DHT22;33538;48.432;11.350;2023-05-10T08:50:52;16.10;97.40
47779;DHT22;33538;48.432;11.350;2023-05-10T08:53:21;16.20;97.20
47779;DHT22;33538;48.432;11.350;2023-05-10T08:55:50;16.20;97.00
47779;DHT22;33538;48.432;11.350;2023-05-10T08:58:17;16.20;96.70
47779;DHT22;33538;48.432;11.350;2023-05-10T09:00:45;16.20;96.70
47779;DHT22;33538;48.432;11.350;2023-05-10T09:03:13;16.20;96.50
47779;DHT22;33538;48.432;11.350;2023-05-10T09:05:40;16.20;96.30
47779;DHT22;33538;48.432;11.350;2023-05-10T09:08:08;16.20;96.20
47779;DHT22;33538;48.432;11.350;2023-05-10T09:10:37;16.30;96.20
47779;DHT22;33538;48.432;11.350;2023-05-10T09:13:05;16.30;96.00
47779;DHT22;33538;48.432;11.350;2023-05-10T09:15:34;16.30;96.00
47779;DHT22;33538;48.432;11.350;2023-05-10T09:18:01;16.30;96.20
47779;DHT22;33538;48.432;11.350;2023-05-10T09:20:28;16.30;96.00
47779;DHT22;33538;48.432;11.350;2023-05-10T09:22:54;16.30;96.20
47779;DHT22;33538;48.432;11.350;2023-05-10T09:25:21;16.30;96.20
47779;DHT22;33538;48.432;11.350;2023-05-10T09:27:49;16.30;96.00
47779;DHT22;33538;48.432;11.350;2023-05-10T09:30:17;16.30;95.70
47779;DHT22;33538;48.432;11.350;2023-05-10T09:32:50;16.30;95.40
47779;DHT22;33538;48.432;11.350;2023-05-10T09:35:18;16.30;95.10
47779;DHT22;33538;48.432;11.350;2023-05-10T09:37:46;16.30;94.90
47779;DHT22;33538;48.432;11.350;2023-05-10T09:40:14;16.30;94.70
47779;DHT22;33538;48.432;11.350;2023-05-10T09:42:42;16.40;94.60
47779;DHT22;33538;48.432;11.350;2023-05-10T09:45:18;16.40;94.50
47779;DHT22;33538;48.432;11.350;2023-05-10T09:47:45;16.40;94.40
47779;DHT22;33538;48.432;11.350;2023-05-10T09:50:12;16.40;94.30
47779;DHT22;33538;48.432;11.350;2023-05-10T09:52:49;16.40;94.20
47779;DHT22;33538;48.432;11.350;2023-05-10T09:55:18;16.40;94.20
47779;DHT22;33538;48.432;11.350;2023-05-10T09:57:46;16.40;94.10
47779;DHT22;33538;48.432;11.350;2023-05-10T10:00:19;16.40;94.10
47779;DHT22;33538;48.432;11.350;2023-05-10T10:02:47;16.50;94.00
47779;DHT22;33538;48.432;11.350;2023-05-10T10:05:14;16.50;94.00
47779;DHT22;33538;48.432;11.350;2023-05-10T10:07:42;16.50;93.90
47779;DHT22;33538;48.432;11.350;2023-05-10T10:10:09;16.50;93.90
47779;DHT22;33538;48.432;11.350;2023-05-10T10:12:36;16.50;93.80
47779;DHT22;33538;48.432;11.350;2023-05-10T10:15:03;16.50;93.70
47779;DHT22;33538;48.432;11.350;2023-05-10T10:17:32;16.50;93.50
47779;DHT22;33538;48.432;11.350;2023-05-10T10:20:02;16.60;93.40
47779;DHT22;33538;48.432;11.350;2023-05-10T10:22:29;16.60;93.30
47779;DHT22;33538;48.432;11.350;2023-05-10T10:24:57;16.60;93.00
47779;DHT22;33538;48.432;11.350;2023-05-10T10:27:26;16.60;93.10
47779;DHT22;33538;48.432;11.350;2023-05-10T10:30:03;16.60;93.10
47779;DHT22;33538;48.432;11.350;2023-05-10T10:32:53;16.60;93.10
47779;DHT22;33538;48.432;11.350;2023-05-10T10:35:22;16.60;93.10
47779;DHT22;33538;48.432;11.350;2023-05-10T10:37:51;16.60;93.10
47779;DHT22;33538;48.432;11.350;2023-05-10T10:40:25;16.60;93.10
47779;DHT22;33538;48.432;11.350;2023-05-10T10:42:51;16.60;93.20
47779;DHT22;33538;48.432;11.350;2023-05-10T10:45:19;16.60;93.10
47779;DHT22;33538;48.432;11.350;2023-05-10T10:47:48;16.60;93.20
47779;DHT22;33538;48.432;11.350;2023-05-10T10:50:15;16.60;93.10
47779;DHT22;33538;48.432;11.350;2023-05-10T10:52:42;16.60;93.10
47779;DHT22;33538;48.432;11.350;2023-05-10T10:55:10;16.70;93.20
47779;DHT22;33538;48.432;11.350;2023-05-10T10:57:45;16.60;93.10
47779;DHT22;33538;48.432;11.350;2023-05-10T11:00:27;16.70;93.20
47779;DHT22;33538;48.432;11.350;2023-05-10T11:02:57;16.70;93.20
47779;DHT22;33538;48.432;11.350;2023-05-10T11:05:39;16.70;93.20
47779;DHT22;33538;48.432;11.350;2023-05-10T11:08:11;16.70;93.20
47779;DHT22;33538;48.432;11.350;2023-05-10T11:10:39;16.70;93.20
47779;DHT22;33538;48.432;11.350;2023-05-10T11:13:08;16.70;93.10
47779;DHT22;33538;48.432;11.350;2023-05-10T11:15:36;16.80;93.20
47779;DHT22;33538;48.432;11.350;2023-05-10T11:18:20;16.80;93.10
47779;DHT22;33538;48.432;11.350;2023-05-10T11:20:55;16.80;93.10
47779;DHT22;33538;48.432;11.350;2023-05-10T11:23:22;16.80;93.10
47779;DHT22;33538;48.432;11.350;2023-05-10T11:25:49;16.80;93.10
47779;DHT22;33538;48.432;11.350;2023-05-10T11:28:17;16.80;93.10
47779;DHT22;33538;48.432;11.350;2023-05-10T11:30:44;16.80;93.10
47779;DHT22;33538;48.432;11.350;2023-05-10T11:33:15;16.80;93.10
47779;DHT22;33538;48.432;11.350;2023-05-10T11:35:44;16.80;93.20
47779;DHT22;33538;48.432;11.350;2023-05-10T11:38:11;16.80;93.20
47779;DHT22;33538;48.432;11.350;2023-05-10T11:40:39;16.80;93.30
47779;DHT22;33538;48.432;11.350;2023-05-10T11:43:08;16.80;93.40
47779;DHT22;33538;48.432;11.350;2023-05-10T11:45:36;16.80;93.60
47779;DHT22;33538;48.432;11.350;2023-05-10T11:48:03;16.80;93.70
47779;DHT22;33538;48.432;11.350;2023-05-10T11:50:30;16.80;93.80
47779;DHT22;33538;48.432;11.350;2023-05-10T11:52:59;16.70;93.80
47779;DHT22;33538;48.432;11.350;2023-05-10T11:55:25;16.70;93.60
47779;DHT22;33538;48.432;11.350;2023-05-10T11:57:52;16.70;93.50
47779;DHT22;33538;48.432;11.350;2023-05-10T12:00:20;16.70;93.60
47779;DHT22;33538;48.432;11.350;2023-05-10T12:02:47;16.60;93.70
47779;DHT22;33538;48.432;11.350;2023-05-10T12:05:15;16.60;94.00
47779;DHT22;33538;48.432;11.350;2023-05-10T12:07:41;16.60;94.40
47779;DHT22;33538;48.432;11.350;2023-05-10T12:10:11;16.60;94.50
47779;DHT22;33538;48.432;11.350;2023-05-10T12:12:39;16.50;94.70
47779;DHT22;33538;48.432;11.350;2023-05-10T12:15:11;16.50;95.00
47779;DHT22;33538;48.432;11.350;2023-05-10T12:17:38;16.50;95.10
47779;DHT22;33538;48.432;11.350;2023-05-10T12:20:17;16.40;95.10
47779;DHT22;33538;48.432;11.350;2023-05-10T12:22:46;16.40;94.90
47779;DHT22;33538;48.432;11.350;2023-05-10T12:25:14;16.30;94.80
47779;DHT22;33538;48.432;11.350;2023-05-10T12:27:47;16.30;94.90
47779;DHT22;33538;48.432;11.350;2023-05-10T12:30:19;16.30;95.10
47779;DHT22;33538;48.432;11.350;2023-05-10T12:32:46;16.30;95.40
47779;DHT22;33538;48.432;11.350;2023-05-10T12:35:13;16.20;95.50
47779;DHT22;33538;48.432;11.350;2023-05-10T12:37:39;16.20;95.70
47779;DHT22;33538;48.432;11.350;2023-05-10T12:40:08;16.20;95.80
47779;DHT22;33538;48.432;11.350;2023-05-10T12:42:38;16.20;96.40
47779;DHT22;33538;48.432;11.350;2023-05-10T12:45:06;16.10;96.10
47779;DHT22;33538;48.432;11.350;2023-05-10T12:47:33;16.10;96.70
47779;DHT22;33538;48.432;11.350;2023-05-10T12:50:01;16.10;96.30
47779;DHT22;33538;48.432;11.350;2023-05-10T12:52:28;16.10;96.30
47779;DHT22;33538;48.432;11.350;2023-05-10T12:54:55;16.10;96.70
47779;DHT22;33538;48.432;11.350;2023-05-10T12:57:22;16.10;96.90
47779;DHT22;33538;48.432;11.350;2023-05-10T12:59:51;16.10;97.20
47779;DHT22;33538;48.432;11.350;2023-05-10T13:02:19;16.10;97.50
47779;DHT22;33538;48.432;11.350;2023-05-10T13:04:46;16.10;97.80
47779;DHT22;33538;48.432;11.350;2023-05-10T13:07:16;16.10;98.60
47779;DHT22;33538;48.432;11.350;2023-05-10T13:09:43;16.10;99.00
47779;DHT22;33538;48.432;11.350;2023-05-10T13:12:10;16.10;99.30
47779;DHT22;33538;48.432;11.350;2023-05-10T13:14:36;16.10;99.50
47779;DHT22;33538;48.432;11.350;2023-05-10T13:17:05;16.20;99.30
47779;DHT22;33538;48.432;11.350;2023-05-10T13:19:31;16.20;99.50
47779;DHT22;33538;48.432;11.350;2023-05-10T13:21:58;16.20;99.70
47779;DHT22;33538;48.432;11.350;2023-05-10T13:24:25;16.20;99.80
47779;DHT22;33538;48.432;11.350;2023-05-10T13:26:52;16.20;99.90
47779;DHT22;33538;48.432;11.350;2023-05-10T13:29:18;16.20;99.70
47779;DHT22;33538;48.432;11.350;2023-05-10T13:31:45;16.20;99.90
47779;DHT22;33538;48.432;11.350;2023-05-10T13:34:14;16.30;99.70
47779;DHT22;33538;48.432;11.350;2023-05-10T13:36:40;16.30;99.50
47779;DHT22;33538;48.432;11.350;2023-05-10T13:39:07;16.30;99.30
47779;DHT22;33538;48.432;11.350;2023-05-10T13:41:34;16.20;99.30
47779;DHT22;33538;48.432;11.350;2023-05-10T13:44:01;16.30;99.30
47779;DHT22;33538;48.432;11.350;2023-05-10T13:46:29;16.20;99.30
47779;DHT22;33538;48.432;11.350;2023-05-10T13:48:56;16.20;99.30
47779;DHT22;33538;48.432;11.350;2023-05-10T13:51:24;16.20;99.60
47779;DHT22;33538;48.432;11.350;2023-05-10T13:53:50;16.20;99.50
47779;DHT22;33538;48.432;11.350;2023-05-10T13:56:17;16.20;99.50
47779;DHT22;33538;48.432;11.350;2023-05-10T13:58:44;16.30;99.40
47779;DHT22;33538;48.432;11.350;2023-05-10T14:01:11;16.30;99.20
47779;DHT22;33538;48.432;11.350;2023-05-10T14:03:38;16.30;99.50
47779;DHT22;33538;48.432;11.350;2023-05-10T14:06:05;16.30;99.40
47779;DHT22;33538;48.432;11.350;2023-05-10T14:08:33;16.30;99.20
47779;DHT22;33538;48.432;11.350;2023-05-10T14:11:00;16.30;99.30
47779;DHT22;33538;48.432;11.350;2023-05-10T14:13:27;16.30;98.90
47779;DHT22;33538;48.432;11.350;2023-05-10T14:15:54;16.40;98.80
47779;DHT22;33538;48.432;11.350;2023-05-10T14:18:21;16.30;98.50
47779;DHT22;33538;48.432;11.350;2023-05-10T14:20:48;16.30;98.40
47779;DHT22;33538;48.432;11.350;2023-05-10T14:23:15;16.40;98.40
47779;DHT22;33538;48.432;11.350;2023-05-10T14:25:43;16.40;98.10
47779;DHT22;33538;48.432;11.350;2023-05-10T14:28:10;16.40;97.90
47779;DHT22;33538;48.432;11.350;2023-05-10T14:30:36;16.30;97.70
47779;DHT22;33538;48.432;11.350;2023-05-10T14:33:03;16.30;97.40
47779;DHT22;33538;48.432;11.350;2023-05-10T14:35:30;16.40;97.30
47779;DHT22;33538;48.432;11.350;2023-05-10T14:37:57;16.40;97.20
47779;DHT22;33538;48.432;11.350;2023-05-10T14:40:24;16.30;97.30
47779;DHT22;33538;48.432;11.350;2023-05-10T14:42:52;16.30;97.50
47779;DHT22;33538;48.432;11.350;2023-05-10T14:45:19;16.30;97.60
47779;DHT22;33538;48.432;11.350;2023-05-10T14:47:45;16.30;97.60
47779;DHT22;33538;48.432;11.350;2023-05-10T14:50:12;16.30;97.80
47779;DHT22;33538;48.432;11.350;2023-05-10T14:52:57;16.30;97.80
47779;DHT22;33538;48.432;11.350;2023-05-10T14:55:24;16.30;97.90
47779;DHT22;33538;48.432;11.350;2023-05-10T14:57:52;16.40;97.70
47779;DHT22;33538;48.432;11.350;2023-05-10T15:00:20;16.30;97.80
47779;DHT22;33538;48.432;11.350;2023-05-10T15:02:47;16.30;97.70
47779;DHT22;33538;48.432;11.350;2023-05-10T15:05:14;16.30;97.80
47779;DHT22;33538;48.432;11.350;2023-05-10T15:07:42;16.30;97.60
47779;DHT22;33538;48.432;11.350;2023-05-10T15:10:09;16.30;97.60
47779;DHT22;33538;48.432;11.350;2023-05-10T15:12:38;16.30;97.60
47779;DHT22;33538;48.432;11.350;2023-05-10T15:15:07;16.30;97.60
47779;DHT22;33538;48.432;11.350;2023-05-10T15:17:34;16.30;97.40
47779;DHT22;33538;48.432;11.350;2023-05-10T15:20:01;16.30;97.50
47779;DHT22;33538;48.432;11.350;2023-05-10T15:22:27;16.30;97.60
47779;DHT22;33538;48.432;11.350;2023-05-10T15:24:54;16.30;97.40
47779;DHT22;33538;48.432;11.350;2023-05-10T15:27:21;16.20;97.30